createdAt,value
2022-08-08T00:00:39.867Z,16.31
2022-08-08T00:02:31.372Z,16.27
2022-08-08T00:05:14.095Z,16.14
2022-08-08T00:07:49.860Z,16.05
2022-08-08T00:10:28.351Z,16.02
2022-08-08T00:13:10.831Z,15.97
2022-08-08T00:15:58.338Z,16.00
2022-08-08T00:18:37.271Z,16.03
2022-08-08T00:21:16.361Z,16.03
2022-08-08T00:23:52.116Z,16.08
2022-08-08T00:26:30.023Z,15.97
2022-08-08T00:29:09.403Z,16.05
2022-08-08T00:32:28.549Z,16.09
2022-08-08T00:35:20.119Z,16.09
2022-08-08T00:38:16.732Z,16.02
2022-08-08T00:41:54.612Z,15.95
2022-08-08T00:45:03.001Z,15.83
2022-08-08T00:48:30.108Z,15.84
2022-08-08T00:51:39.134Z,15.88
2022-08-08T00:54:52.203Z,15.81
2022-08-08T00:57:59.076Z,15.77
2022-08-08T01:00:37.437Z,15.76
2022-08-08T01:03:58.407Z,15.64
2022-08-08T01:07:21.218Z,15.66
2022-08-08T01:10:31.835Z,15.67
2022-08-08T01:13:58.417Z,15.56
2022-08-08T01:17:10.122Z,15.68
2022-08-08T01:20:21.886Z,15.64
2022-08-08T01:24:06.404Z,15.47
2022-08-08T01:26:48.927Z,15.46
2022-08-08T01:29:59.223Z,15.55
2022-08-08T01:33:23.580Z,15.55
2022-08-08T01:36:33.239Z,15.48
2022-08-08T01:39:27.894Z,15.25
2022-08-08T01:42:08.220Z,15.20
2022-08-08T01:44:55.351Z,15.09
2022-08-08T01:48:16.658Z,14.90
2022-08-08T01:50:53.911Z,14.87
2022-08-08T01:55:17.774Z,14.95
2022-08-08T01:56:47.106Z,14.97
2022-08-08T02:00:01.670Z,15.06
2022-08-08T02:02:51.931Z,15.04
2022-08-08T02:05:55.916Z,15.21
2022-08-08T02:08:45.616Z,15.33
2022-08-08T02:11:59.052Z,15.30
2022-08-08T02:14:55.083Z,15.21
2022-08-08T02:17:36.459Z,15.09
2022-08-08T02:21:02.364Z,14.97
2022-08-08T02:23:23.369Z,15.03
2022-08-08T02:26:10.044Z,14.93
2022-08-08T02:28:54.273Z,14.86
2022-08-08T02:31:54.118Z,14.91
2022-08-08T02:35:10.908Z,15.14
2022-08-08T02:38:01.972Z,15.19
2022-08-08T02:40:45.154Z,15.21
2022-08-08T02:44:36.848Z,15.31
2022-08-08T02:47:10.596Z,15.32
2022-08-08T02:50:17.633Z,15.23
2022-08-08T02:53:24.997Z,15.18
2022-08-08T02:56:36.700Z,15.17
2022-08-08T02:59:57.580Z,15.13
2022-08-08T03:03:12.398Z,15.09
2022-08-08T03:06:24.143Z,15.11
2022-08-08T03:09:54.064Z,15.11
2022-08-08T03:13:01.544Z,15.15
2022-08-08T03:16:05.270Z,15.09
2022-08-08T03:18:49.245Z,15.04
2022-08-08T03:21:40.693Z,14.95
2022-08-08T03:24:11.979Z,14.98
2022-08-08T03:26:54.213Z,15.05
2022-08-08T03:29:51.215Z,15.03
2022-08-08T03:32:47.536Z,15.06
2022-08-08T03:35:35.540Z,15.16
2022-08-08T03:38:58.562Z,15.27
2022-08-08T03:42:04.046Z,15.33
2022-08-08T03:44:07.785Z,15.44
2022-08-08T03:46:49.176Z,15.52
2022-08-08T03:50:00.947Z,15.78
2022-08-08T03:52:18.926Z,16.61
2022-08-08T03:55:02.078Z,17.43
2022-08-08T03:58:31.181Z,18.30
2022-08-08T04:00:56.496Z,18.87
2022-08-08T04:03:57.351Z,19.52
2022-08-08T04:06:29.249Z,20.28
2022-08-08T04:09:10.419Z,20.79
2022-08-08T04:11:58.417Z,21.25
2022-08-08T04:14:34.437Z,21.65
2022-08-08T04:17:15.714Z,21.57
2022-08-08T04:19:59.289Z,21.22
2022-08-08T04:22:34.077Z,20.87
2022-08-08T04:25:06.893Z,20.53
2022-08-08T04:28:02.571Z,20.20
2022-08-08T04:30:36.643Z,20.09
2022-08-08T04:33:16.069Z,20.01
2022-08-08T04:35:51.460Z,19.98
2022-08-08T04:38:24.337Z,19.92
2022-08-08T04:40:55.942Z,19.97
2022-08-08T04:43:31.809Z,19.89
2022-08-08T04:46:16.593Z,20.17
2022-08-08T04:48:50.050Z,20.46
2022-08-08T04:51:23.466Z,20.72
2022-08-08T04:54:40.305Z,20.69
2022-08-08T04:56:51.283Z,20.72
2022-08-08T04:59:24.258Z,20.83
2022-08-08T05:02:02.269Z,21.03
2022-08-08T05:04:34.612Z,21.18
2022-08-08T05:07:06.458Z,21.35
2022-08-08T05:09:38.269Z,21.56
2022-08-08T05:12:20.523Z,21.77
2022-08-08T05:14:53.317Z,22.10
2022-08-08T05:17:24.859Z,22.50
2022-08-08T05:20:12.763Z,22.75
2022-08-08T05:22:46.416Z,22.92
2022-08-08T05:25:21.480Z,23.15
2022-08-08T05:27:55.023Z,23.35
2022-08-08T05:30:28.528Z,23.49
2022-08-08T05:33:03.327Z,23.63
2022-08-08T05:35:39.680Z,23.72
2022-08-08T05:38:30.580Z,23.64
2022-08-08T05:41:06.642Z,23.75
2022-08-08T05:44:03.424Z,23.90
2022-08-08T05:46:31.592Z,23.98
2022-08-08T05:49:10.408Z,24.19
2022-08-08T05:51:48.771Z,24.12
2022-08-08T05:54:26.979Z,23.95
2022-08-08T05:57:57.584Z,23.99
2022-08-08T06:00:22.510Z,24.21
2022-08-08T06:03:23.589Z,24.42
2022-08-08T06:06:01.318Z,24.70
2022-08-08T06:08:53.400Z,24.91
2022-08-08T06:11:28.895Z,24.94
2022-08-08T06:14:00.876Z,24.92
2022-08-08T06:16:33.819Z,25.03
2022-08-08T06:19:16.173Z,25.09
2022-08-08T06:21:56.806Z,25.17
2022-08-08T06:24:31.073Z,25.24
2022-08-08T06:27:11.117Z,25.39
2022-08-08T06:30:04.209Z,25.46
2022-08-08T06:32:39.938Z,25.51
2022-08-08T06:36:07.192Z,25.58
2022-08-08T06:38:14.734Z,25.43
2022-08-08T06:40:53.678Z,25.42
2022-08-08T06:43:33.669Z,25.46
2022-08-08T06:46:08.642Z,25.47
2022-08-08T06:48:42.395Z,25.47
2022-08-08T06:51:15.887Z,25.59
2022-08-08T06:53:50.853Z,25.59
2022-08-08T06:56:29.818Z,25.62
2022-08-08T06:59:12.071Z,25.60
2022-08-08T07:02:17.232Z,25.44
2022-08-08T07:04:52.283Z,25.53
2022-08-08T07:07:32.995Z,25.58
2022-08-08T07:10:07.909Z,25.69
2022-08-08T07:12:47.754Z,25.81
2022-08-08T07:16:03.878Z,25.75
2022-08-08T07:18:36.940Z,25.78
2022-08-08T07:21:19.398Z,25.81
2022-08-08T07:24:02.811Z,25.85
2022-08-08T07:26:39.676Z,25.91
2022-08-08T07:29:20.202Z,25.88
2022-08-08T07:32:03.730Z,25.88
2022-08-08T07:34:48.414Z,25.87
2022-08-08T07:37:56.069Z,25.82
2022-08-08T07:40:29.900Z,25.68
2022-08-08T07:43:09.142Z,25.71
2022-08-08T07:46:05.026Z,25.76
2022-08-08T07:48:34.482Z,25.77
2022-08-08T07:51:12.033Z,25.84
2022-08-08T07:54:04.945Z,25.96
2022-08-08T07:56:45.606Z,26.08
2022-08-08T07:59:19.267Z,26.19
2022-08-08T08:02:35.727Z,26.17
2022-08-08T08:04:52.286Z,25.99
2022-08-08T08:07:32.437Z,25.80
2022-08-08T08:10:14.315Z,25.75
2022-08-08T08:12:57.250Z,25.73
2022-08-08T08:15:32.019Z,25.69
2022-08-08T08:18:14.317Z,25.72
2022-08-08T08:20:46.904Z,25.84
2022-08-08T08:23:19.617Z,25.99
2022-08-08T08:25:56.711Z,26.07
2022-08-08T08:28:30.098Z,26.14
2022-08-08T08:31:06.027Z,26.25
2022-08-08T08:33:37.830Z,26.11
2022-08-08T08:36:19.041Z,25.80
2022-08-08T08:38:52.797Z,25.73
2022-08-08T08:41:25.822Z,25.87
2022-08-08T08:44:14.180Z,26.04
2022-08-08T08:46:58.633Z,26.22
2022-08-08T08:49:33.616Z,26.14
2022-08-08T08:52:07.372Z,25.88
2022-08-08T08:54:40.732Z,25.69
2022-08-08T08:57:15.362Z,25.74
2022-08-08T09:00:01.660Z,25.88
2022-08-08T09:02:41.158Z,26.01
2022-08-08T09:05:28.825Z,25.99
2022-08-08T09:08:12.616Z,26.15
2022-08-08T09:10:51.084Z,26.40
2022-08-08T09:13:25.127Z,26.40
2022-08-08T09:16:03.537Z,26.24
2022-08-08T09:18:35.762Z,26.08
2022-08-08T09:22:02.948Z,26.02
2022-08-08T09:24:03.964Z,25.76
2022-08-08T09:26:51.388Z,25.51
2022-08-08T09:29:26.555Z,25.43
2022-08-08T09:32:02.476Z,25.42
2022-08-08T09:34:37.619Z,25.47
2022-08-08T09:37:39.612Z,25.51
2022-08-08T09:40:10.602Z,25.54
2022-08-08T09:42:51.364Z,25.59
2022-08-08T09:46:01.660Z,25.67
2022-08-08T09:48:28.875Z,25.76
2022-08-08T09:51:06.893Z,25.82
2022-08-08T09:53:56.551Z,25.95
2022-08-08T09:56:41.163Z,26.10
2022-08-08T10:02:25.346Z,26.25
2022-08-08T10:05:14.612Z,26.40
2022-08-08T10:08:00.118Z,26.35
2022-08-08T10:10:37.089Z,26.36
2022-08-08T10:13:22.809Z,26.34
2022-08-08T10:16:05.373Z,26.32
2022-08-08T10:18:45.386Z,26.37
2022-08-08T10:21:33.141Z,26.45
2022-08-08T10:24:29.724Z,26.51
2022-08-08T10:27:05.203Z,26.57
2022-08-08T10:29:58.315Z,26.59
2022-08-08T10:32:48.373Z,26.55
2022-08-08T10:36:20.528Z,26.44
2022-08-08T10:38:19.341Z,26.35
2022-08-08T10:40:54.303Z,26.21
2022-08-08T10:43:37.777Z,26.06
2022-08-08T10:49:26.841Z,25.97
2022-08-08T10:52:30.901Z,25.94
2022-08-08T10:55:05.113Z,25.93
2022-08-08T10:57:50.000Z,25.89
2022-08-08T11:00:26.832Z,25.83
2022-08-08T11:02:59.121Z,25.91
2022-08-08T11:05:39.054Z,25.86
2022-08-08T11:08:39.050Z,25.88
2022-08-08T11:11:32.416Z,25.80
2022-08-08T11:14:06.796Z,25.67
2022-08-08T11:16:42.749Z,25.68
2022-08-08T11:19:20.347Z,25.74
2022-08-08T11:21:57.606Z,25.76
2022-08-08T11:24:30.529Z,25.66
2022-08-08T11:27:10.734Z,25.62
2022-08-08T11:30:19.824Z,25.64
2022-08-08T11:32:47.715Z,25.83
2022-08-08T11:35:27.717Z,25.93
2022-08-08T11:38:39.322Z,26.19
2022-08-08T11:41:01.314Z,26.37
2022-08-08T11:43:39.526Z,26.30
2022-08-08T11:46:18.044Z,26.26
2022-08-08T11:48:51.945Z,26.38
2022-08-08T11:51:29.490Z,26.53
2022-08-08T11:54:31.375Z,26.45
2022-08-08T11:57:14.602Z,26.48
2022-08-08T12:00:00.554Z,26.50
2022-08-08T12:02:46.314Z,26.52
2022-08-08T12:05:22.436Z,26.57
2022-08-08T12:07:56.547Z,26.43
2022-08-08T12:10:30.514Z,26.17
2022-08-08T12:13:06.375Z,26.09
2022-08-08T12:15:46.834Z,26.07
2022-08-08T12:18:24.667Z,25.90
2022-08-08T12:20:59.794Z,25.98
2022-08-08T12:23:43.635Z,26.03
2022-08-08T12:26:35.803Z,26.11
2022-08-08T12:29:36.222Z,26.22
2022-08-08T12:32:19.581Z,26.49
2022-08-08T12:35:13.284Z,26.76
2022-08-08T12:38:02.984Z,26.80
2022-08-08T12:40:55.860Z,26.80
2022-08-08T12:43:47.922Z,26.59
2022-08-08T12:46:28.820Z,26.41
2022-08-08T12:52:00.511Z,26.25
2022-08-08T12:54:36.274Z,26.48
2022-08-08T12:57:24.264Z,26.59
2022-08-08T13:00:03.814Z,26.73
2022-08-08T13:02:42.217Z,26.78
2022-08-08T13:05:26.390Z,26.70
2022-08-08T13:08:22.278Z,26.78
2022-08-08T13:11:05.834Z,26.86
2022-08-08T13:13:40.587Z,26.79
2022-08-08T13:16:26.275Z,26.75
2022-08-08T13:19:09.217Z,26.62
2022-08-08T13:21:55.618Z,26.69
2022-08-08T13:24:48.518Z,26.60
2022-08-08T13:27:22.092Z,26.49
2022-08-08T13:29:56.343Z,26.45
2022-08-08T13:32:35.566Z,26.43
2022-08-08T13:35:24.455Z,26.60
2022-08-08T13:38:08.150Z,26.63
2022-08-08T13:40:45.911Z,26.76
2022-08-08T13:43:18.386Z,26.58
2022-08-08T13:45:52.570Z,26.51
2022-08-08T13:48:26.079Z,26.67
2022-08-08T13:51:24.873Z,26.78
2022-08-08T13:54:00.584Z,26.81
2022-08-08T13:56:44.707Z,26.76
2022-08-08T13:59:39.290Z,26.84
2022-08-08T14:02:21.108Z,27.02
2022-08-08T14:05:09.056Z,27.10
2022-08-08T14:07:59.461Z,27.09
2022-08-08T14:10:37.470Z,27.14
2022-08-08T14:13:30.988Z,27.13
2022-08-08T14:16:16.620Z,26.71
2022-08-08T14:18:56.547Z,26.46
2022-08-08T14:21:49.136Z,26.32
2022-08-08T14:24:33.559Z,26.09
2022-08-08T14:27:07.891Z,26.02
2022-08-08T14:29:40.186Z,25.92
2022-08-08T14:32:17.986Z,25.78
2022-08-08T14:35:04.580Z,25.94
2022-08-08T14:38:00.347Z,26.05
2022-08-08T14:40:35.596Z,26.09
2022-08-08T14:43:31.105Z,26.06
2022-08-08T14:46:09.663Z,26.11
2022-08-08T14:48:52.618Z,26.16
2022-08-08T14:51:51.836Z,26.25
2022-08-08T14:54:29.210Z,26.29
2022-08-08T14:57:04.125Z,26.37
2022-08-08T14:59:44.543Z,26.27
2022-08-08T15:02:31.098Z,26.17
2022-08-08T15:05:07.983Z,26.12
2022-08-08T15:07:42.540Z,26.11
2022-08-08T15:10:28.923Z,26.02
2022-08-08T15:13:00.609Z,25.84
2022-08-08T15:16:02.489Z,25.90
2022-08-08T15:18:23.798Z,26.02
2022-08-08T15:21:01.336Z,25.98
2022-08-08T15:23:33.103Z,25.94
2022-08-08T15:26:10.867Z,25.88
2022-08-08T15:28:44.373Z,25.75
2022-08-08T15:32:02.934Z,25.62
2022-08-08T15:34:08.641Z,25.56
2022-08-08T15:37:02.409Z,25.75
2022-08-08T15:39:38.100Z,25.84
2022-08-08T15:42:17.815Z,25.79
2022-08-08T15:45:03.756Z,25.72
2022-08-08T15:47:35.357Z,25.74
2022-08-08T15:50:18.235Z,25.75
2022-08-08T15:52:54.497Z,25.81
2022-08-08T15:55:27.784Z,25.89
2022-08-08T15:57:59.841Z,25.89
2022-08-08T16:00:31.834Z,25.79
2022-08-08T16:03:03.524Z,25.69
2022-08-08T16:05:35.254Z,25.67
2022-08-08T16:08:12.689Z,25.68
2022-08-08T16:13:15.605Z,25.59
2022-08-08T16:13:43.867Z,25.66
2022-08-08T16:16:19.163Z,25.73
2022-08-08T16:18:57.664Z,25.68
2022-08-08T16:21:32.122Z,25.61
2022-08-08T16:24:03.102Z,25.55
2022-08-08T16:26:38.276Z,25.62
2022-08-08T16:29:16.138Z,25.66
2022-08-08T16:31:50.411Z,25.65
2022-08-08T16:34:24.943Z,25.50
2022-08-08T16:36:56.643Z,25.40
2022-08-08T16:40:01.824Z,25.35
2022-08-08T16:42:20.021Z,25.29
2022-08-08T16:44:54.348Z,25.17
2022-08-08T16:47:40.671Z,25.21
2022-08-08T16:50:16.747Z,25.32
2022-08-08T16:55:22.899Z,25.28
2022-08-08T16:55:55.931Z,25.26
2022-08-08T16:58:34.383Z,25.11
2022-08-08T17:01:09.164Z,25.19
2022-08-08T17:03:57.957Z,25.17
2022-08-08T17:06:43.434Z,25.19
2022-08-08T17:09:16.040Z,25.24
2022-08-08T17:11:56.698Z,25.16
2022-08-08T17:14:34.414Z,24.98
2022-08-08T17:17:41.600Z,25.06
2022-08-08T17:20:00.092Z,25.20
2022-08-08T17:22:42.356Z,25.27
2022-08-08T17:25:14.520Z,25.21
2022-08-08T17:27:48.192Z,25.04
2022-08-08T17:30:23.673Z,24.90
2022-08-08T17:34:49.334Z,24.88
2022-08-08T17:35:55.319Z,24.70
2022-08-08T17:38:40.866Z,24.61
2022-08-08T17:41:13.649Z,24.61
2022-08-08T17:44:00.871Z,24.54
2022-08-08T17:46:41.679Z,24.42
2022-08-08T17:49:23.996Z,24.29
2022-08-08T17:51:56.931Z,24.13
2022-08-08T17:54:29.333Z,24.22
2022-08-08T17:57:01.427Z,24.22
2022-08-08T17:59:45.356Z,24.16
2022-08-08T18:02:21.551Z,24.07
2022-08-08T18:05:04.555Z,24.08
2022-08-08T18:08:03.129Z,24.05
2022-08-08T18:10:31.579Z,24.02
2022-08-08T18:13:07.547Z,23.85
2022-08-08T18:15:40.609Z,23.63
2022-08-08T18:18:29.543Z,23.47
2022-08-08T18:21:10.616Z,23.43
2022-08-08T18:23:56.218Z,23.41
2022-08-08T18:26:28.198Z,23.33
2022-08-08T18:29:00.842Z,23.20
2022-08-08T18:31:33.226Z,23.00
2022-08-08T18:34:11.345Z,22.93
2022-08-08T18:36:57.316Z,22.90
2022-08-08T18:39:29.393Z,22.93
2022-08-08T18:42:03.761Z,22.80
2022-08-08T18:44:36.352Z,22.71
2022-08-08T18:47:08.734Z,22.64
2022-08-08T18:49:57.462Z,22.48
2022-08-08T18:52:34.593Z,22.30
2022-08-08T18:55:10.826Z,22.33
2022-08-08T18:57:45.732Z,22.23
2022-08-08T19:00:20.865Z,22.17
2022-08-08T19:03:06.278Z,22.13
2022-08-08T19:05:45.358Z,22.04
2022-08-08T19:08:29.598Z,22.14
2022-08-08T19:11:09.795Z,22.17
2022-08-08T19:13:56.829Z,22.10
2022-08-08T19:16:32.014Z,22.01
2022-08-08T19:19:09.948Z,22.08
2022-08-08T19:21:50.191Z,22.05
2022-08-08T19:24:41.756Z,21.97
2022-08-08T19:27:55.679Z,22.00
2022-08-08T19:30:24.416Z,22.03
2022-08-08T19:33:00.722Z,21.95
2022-08-08T19:35:45.006Z,21.99
2022-08-08T19:38:22.585Z,22.08
2022-08-08T19:40:56.094Z,21.95
2022-08-08T19:43:31.498Z,21.74
2022-08-08T19:46:03.199Z,21.63
2022-08-08T19:48:37.128Z,21.61
2022-08-08T19:51:08.772Z,21.65
2022-08-08T19:53:53.255Z,21.64
2022-08-08T19:56:40.189Z,21.59
2022-08-08T19:59:14.126Z,21.46
2022-08-08T20:02:03.490Z,21.34
2022-08-08T20:04:36.941Z,21.22
2022-08-08T20:08:29.922Z,21.10
2022-08-08T20:10:03.438Z,21.25
2022-08-08T20:12:35.860Z,21.28
2022-08-08T20:15:16.760Z,21.10
2022-08-08T20:17:50.380Z,21.15
2022-08-08T20:20:25.460Z,21.06
2022-08-08T20:23:04.195Z,20.97
2022-08-08T20:25:46.669Z,21.02
2022-08-08T20:28:23.886Z,21.09
2022-08-08T20:30:59.992Z,20.93
2022-08-08T20:34:30.377Z,20.75
2022-08-08T20:36:23.859Z,20.89
2022-08-08T20:38:58.704Z,20.83
2022-08-08T20:41:34.777Z,20.77
2022-08-08T20:44:08.502Z,20.73
2022-08-08T20:46:42.834Z,20.62
2022-08-08T20:49:21.945Z,20.47
2022-08-08T20:51:53.367Z,20.35
2022-08-08T20:54:28.227Z,20.36
2022-08-08T20:57:05.848Z,20.46
2022-08-08T20:59:50.470Z,20.36
2022-08-08T21:02:25.606Z,20.30
2022-08-08T21:05:01.016Z,20.34
2022-08-08T21:08:33.249Z,20.34
2022-08-08T21:10:28.021Z,20.36
2022-08-08T21:12:58.684Z,20.25
2022-08-08T21:16:05.295Z,20.13
2022-08-08T21:18:21.796Z,20.14
2022-08-08T21:20:54.606Z,20.23
2022-08-08T21:24:02.781Z,20.23
2022-08-08T21:26:27.069Z,20.30
2022-08-08T21:29:00.951Z,20.18
2022-08-08T21:31:57.803Z,20.14
2022-08-08T21:34:29.843Z,20.17
2022-08-08T21:37:16.176Z,20.18
2022-08-08T21:39:56.735Z,20.16
2022-08-08T21:42:28.851Z,20.10
2022-08-08T21:45:20.848Z,19.95
2022-08-08T21:48:06.097Z,19.90
2022-08-08T21:50:44.632Z,20.03
2022-08-08T21:54:33.261Z,19.94
2022-08-08T21:56:24.432Z,19.93
2022-08-08T21:59:02.490Z,19.96
2022-08-08T22:01:41.151Z,19.86
2022-08-08T22:04:14.172Z,19.79
2022-08-08T22:06:47.096Z,19.75
2022-08-08T22:09:18.730Z,19.77
2022-08-08T22:12:09.266Z,19.87
2022-08-08T22:14:42.757Z,19.86
2022-08-08T22:17:15.345Z,19.66
2022-08-08T22:20:11.452Z,19.58
2022-08-08T22:22:40.308Z,19.56
2022-08-08T22:25:25.194Z,19.54
2022-08-08T22:28:03.620Z,19.55
2022-08-08T22:30:36.553Z,19.50
2022-08-08T22:34:10.678Z,19.65
2022-08-08T22:36:04.173Z,19.54
2022-08-08T22:38:48.555Z,19.40
2022-08-08T22:41:21.561Z,19.24
2022-08-08T22:44:02.319Z,19.24
2022-08-08T22:46:39.554Z,19.38
2022-08-08T22:49:11.212Z,19.41
2022-08-08T22:51:49.825Z,19.24
2022-08-08T22:54:30.676Z,19.14
2022-08-08T22:57:08.687Z,19.23
2022-08-08T22:59:59.372Z,19.22
2022-08-08T23:02:31.814Z,19.32
2022-08-08T23:05:07.554Z,19.31
2022-08-08T23:07:51.044Z,19.31
2022-08-08T23:10:29.126Z,19.40
2022-08-08T23:13:01.002Z,19.40
2022-08-08T23:16:38.800Z,19.36
2022-08-08T23:18:24.118Z,19.34
2022-08-08T23:21:04.681Z,19.47
2022-08-08T23:23:48.799Z,19.41
2022-08-08T23:26:28.029Z,19.38
2022-08-08T23:29:00.678Z,19.43
2022-08-08T23:31:36.785Z,19.43
2022-08-08T23:34:16.671Z,19.45
2022-08-08T23:36:57.918Z,19.48
2022-08-08T23:39:32.100Z,19.50
2022-08-08T23:42:13.271Z,19.51
2022-08-08T23:44:45.240Z,19.53
2022-08-08T23:49:06.768Z,19.60
2022-08-08T23:50:29.792Z,19.48
2022-08-08T23:53:05.186Z,19.47
2022-08-08T23:55:38.413Z,19.34
2022-08-08T23:58:32.075Z,19.18
